Terminal Aerodrome Forecast
Issued by NWS Charleston, WV

Current Version | Previous Version | Text Only | Print | Product List | Glossary Off
Versions: 1 2 3 4 5 6 7 8 9 10 11 12 13 14 15 16 17 18 19 20 21 22

000
FTUS41 KRLX 261727
TAFEKN
TAF
KEKN 261727Z 2618/2718 26011G17KT P6SM SCT060
     FM262300 26006KT P6SM FEW050
     FM270400 17004KT P6SM FEW060
     FM271500 27008G14KT P6SM BKN045=

USA.gov is the U.S. government's official web portal to all federal, state and local government web resources and services.